sensor_id;sensor_type;location;lat;lon;timestamp;pressure;altitude;pressure_sealevel;temperature;humidity
7376;BME280;3728;42.266;24.944;2023-05-29T00:01:27;99240.53;;;18.13;100.00
7376;BME280;3728;42.266;24.944;2023-05-29T00:03:55;99235.38;;;18.46;100.00
7376;BME280;3728;42.266;24.944;2023-05-29T00:06:24;99230.69;;;18.66;100.00
7376;BME280;3728;42.266;24.944;2023-05-29T00:08:51;99232.03;;;18.26;100.00
7376;BME280;3728;42.266;24.944;2023-05-29T00:11:19;99229.47;;;18.07;100.00
7376;BME280;3728;42.266;24.944;2023-05-29T00:13:46;99234.44;;;17.86;100.00
7376;BME280;3728;42.266;24.944;2023-05-29T00:16:14;99241.69;;;17.89;100.00
7376;BME280;3728;42.266;24.944;2023-05-29T00:18:44;99234.63;;;17.74;100.00
7376;BME280;3728;42.266;24.944;2023-05-29T00:21:13;99241.09;;;17.76;100.00
7376;BME280;3728;42.266;24.944;2023-05-29T00:23:41;99250.63;;;17.81;100.00
7376;BME280;3728;42.266;24.944;2023-05-29T00:26:11;99252.06;;;17.75;100.00
7376;BME280;3728;42.266;24.944;2023-05-29T00:28:41;99258.94;;;17.80;100.00
7376;BME280;3728;42.266;24.944;2023-05-29T00:31:09;99254.75;;;17.78;100.00
7376;BME280;3728;42.266;24.944;2023-05-29T00:33:39;99254.28;;;17.96;100.00
7376;BME280;3728;42.266;24.944;2023-05-29T00:36:07;99251.59;;;17.92;100.00
7376;BME280;3728;42.266;24.944;2023-05-29T00:38:37;99261.44;;;17.95;100.00
7376;BME280;3728;42.266;24.944;2023-05-29T00:41:04;99260.44;;;17.81;100.00
7376;BME280;3728;42.266;24.944;2023-05-29T00:43:32;99256.41;;;17.87;100.00
7376;BME280;3728;42.266;24.944;2023-05-29T00:46:00;99249.84;;;17.81;100.00
7376;BME280;3728;42.266;24.944;2023-05-29T00:48:28;99246.75;;;17.75;100.00
7376;BME280;3728;42.266;24.944;2023-05-29T00:50:55;99245.81;;;17.64;100.00
7376;BME280;3728;42.266;24.944;2023-05-29T00:53:23;99247.22;;;17.58;100.00
7376;BME280;3728;42.266;24.944;2023-05-29T00:55:52;99241.22;;;17.61;100.00
7376;BME280;3728;42.266;24.944;2023-05-29T00:58:20;99242.19;;;17.53;100.00
7376;BME280;3728;42.266;24.944;2023-05-29T01:00:49;99232.75;;;17.52;100.00
7376;BME280;3728;42.266;24.944;2023-05-29T01:03:20;99235.25;;;17.45;100.00
7376;BME280;3728;42.266;24.944;2023-05-29T01:05:49;99238.78;;;17.52;100.00
7376;BME280;3728;42.266;24.944;2023-05-29T01:08:19;99236.91;;;17.53;100.00
7376;BME280;3728;42.266;24.944;2023-05-29T01:10:47;99228.88;;;17.49;100.00
7376;BME280;3728;42.266;24.944;2023-05-29T01:13:18;99233.41;;;17.49;100.00
7376;BME280;3728;42.266;24.944;2023-05-29T01:24:50;99224.34;;;17.50;100.00
7376;BME280;3728;42.266;24.944;2023-05-29T01:27:47;99224.66;;;17.45;100.00
7376;BME280;3728;42.266;24.944;2023-05-29T01:30:15;99231.69;;;17.37;100.00
7376;BME280;3728;42.266;24.944;2023-05-29T01:32:43;99224.81;;;17.33;100.00
7376;BME280;3728;42.266;24.944;2023-05-29T01:35:13;99231.63;;;17.34;100.00
7376;BME280;3728;42.266;24.944;2023-05-29T01:37:43;99233.19;;;17.38;100.00
7376;BME280;3728;42.266;24.944;2023-05-29T01:40:11;99222.41;;;17.47;100.00
7376;BME280;3728;42.266;24.944;2023-05-29T01:42:40;99223.66;;;17.34;100.00
7376;BME280;3728;42.266;24.944;2023-05-29T01:45:07;99226.03;;;17.39;100.00
7376;BME280;3728;42.266;24.944;2023-05-29T01:47:36;99228.13;;;17.49;100.00
7376;BME280;3728;42.266;24.944;2023-05-29T01:50:04;99224.19;;;17.62;100.00
7376;BME280;3728;42.266;24.944;2023-05-29T01:52:33;99227.19;;;17.83;100.00
7376;BME280;3728;42.266;24.944;2023-05-29T01:55:01;99218.88;;;18.07;100.00
7376;BME280;3728;42.266;24.944;2023-05-29T01:57:29;99224.53;;;17.83;100.00
7376;BME280;3728;42.266;24.944;2023-05-29T01:59:57;99228.97;;;17.75;100.00
7376;BME280;3728;42.266;24.944;2023-05-29T02:02:25;99231.63;;;17.75;100.00
7376;BME280;3728;42.266;24.944;2023-05-29T02:04:56;99239.16;;;17.73;100.00
7376;BME280;3728;42.266;24.944;2023-05-29T02:07:23;99231.72;;;17.60;100.00
7376;BME280;3728;42.266;24.944;2023-05-29T02:09:51;99236.75;;;17.65;100.00
7376;BME280;3728;42.266;24.944;2023-05-29T02:12:18;99235.09;;;17.57;100.00
7376;BME280;3728;42.266;24.944;2023-05-29T02:14:46;99228.22;;;17.75;100.00
7376;BME280;3728;42.266;24.944;2023-05-29T02:17:14;99236.75;;;17.65;100.00
7376;BME280;3728;42.266;24.944;2023-05-29T02:19:42;99231.72;;;17.60;100.00
7376;BME280;3728;42.266;24.944;2023-05-29T02:22:09;99242.03;;;17.46;100.00
7376;BME280;3728;42.266;24.944;2023-05-29T02:24:37;99233.97;;;17.39;100.00
7376;BME280;3728;42.266;24.944;2023-05-29T02:27:06;99236.63;;;17.39;100.00
7376;BME280;3728;42.266;24.944;2023-05-29T02:29:33;99229.09;;;17.41;100.00
7376;BME280;3728;42.266;24.944;2023-05-29T02:32:01;99228.63;;;17.35;100.00
7376;BME280;3728;42.266;24.944;2023-05-29T02:34:32;99233.69;;;17.44;100.00
7376;BME280;3728;42.266;24.944;2023-05-29T02:37:01;99235.81;;;17.54;100.00
7376;BME280;3728;42.266;24.944;2023-05-29T02:39:29;99235.16;;;17.60;100.00
7376;BME280;3728;42.266;24.944;2023-05-29T02:41:56;99249.16;;;17.84;100.00
7376;BME280;3728;42.266;24.944;2023-05-29T02:44:24;99249.69;;;17.70;100.00
7376;BME280;3728;42.266;24.944;2023-05-29T02:46:51;99247.69;;;17.63;100.00
7376;BME280;3728;42.266;24.944;2023-05-29T02:49:19;99250.09;;;17.72;100.00
7376;BME280;3728;42.266;24.944;2023-05-29T02:51:47;99232.63;;;17.48;100.00
7376;BME280;3728;42.266;24.944;2023-05-29T02:54:14;99232.09;;;17.58;100.00
7376;BME280;3728;42.266;24.944;2023-05-29T02:56:42;99237.03;;;17.41;100.00
7376;BME280;3728;42.266;24.944;2023-05-29T02:59:09;99227.88;;;17.35;100.00
7376;BME280;3728;42.266;24.944;2023-05-29T03:01:37;99229.38;;;17.55;100.00
7376;BME280;3728;42.266;24.944;2023-05-29T03:04:05;99233.59;;;17.59;100.00
7376;BME280;3728;42.266;24.944;2023-05-29T03:06:33;99233.97;;;17.58;100.00
7376;BME280;3728;42.266;24.944;2023-05-29T03:09:01;99249.03;;;17.54;100.00
7376;BME280;3728;42.266;24.944;2023-05-29T03:11:29;99247.84;;;17.74;100.00
7376;BME280;3728;42.266;24.944;2023-05-29T03:13:57;99244.16;;;17.78;100.00
7376;BME280;3728;42.266;24.944;2023-05-29T03:16:25;99248.34;;;17.57;100.00
7376;BME280;3728;42.266;24.944;2023-05-29T03:18:57;99247.34;;;17.65;100.00
7376;BME280;3728;42.266;24.944;2023-05-29T03:21:24;99241.16;;;17.57;100.00
7376;BME280;3728;42.266;24.944;2023-05-29T03:23:52;99247.84;;;17.51;100.00
7376;BME280;3728;42.266;24.944;2023-05-29T03:26:20;99257.75;;;17.54;100.00
7376;BME280;3728;42.266;24.944;2023-05-29T03:28:49;99267.91;;;17.52;100.00
7376;BME280;3728;42.266;24.944;2023-05-29T03:31:17;99265.19;;;17.49;100.00
7376;BME280;3728;42.266;24.944;2023-05-29T03:33:45;99267.22;;;17.55;100.00
7376;BME280;3728;42.266;24.944;2023-05-29T03:36:21;99275.84;;;17.52;100.00
7376;BME280;3728;42.266;24.944;2023-05-29T03:38:48;99275.78;;;17.49;100.00
7376;BME280;3728;42.266;24.944;2023-05-29T03:41:20;99275.22;;;17.59;100.00
7376;BME280;3728;42.266;24.944;2023-05-29T03:43:50;99284.34;;;17.61;100.00
7376;BME280;3728;42.266;24.944;2023-05-29T03:46:20;99286.44;;;17.52;100.00
7376;BME280;3728;42.266;24.944;2023-05-29T03:48:49;99293.69;;;17.55;100.00
7376;BME280;3728;42.266;24.944;2023-05-29T03:51:17;99283.47;;;17.54;100.00
7376;BME280;3728;42.266;24.944;2023-05-29T03:53:44;99287.22;;;17.53;100.00
7376;BME280;3728;42.266;24.944;2023-05-29T03:56:12;99286.00;;;17.50;100.00
7376;BME280;3728;42.266;24.944;2023-05-29T03:58:40;99284.06;;;17.47;100.00
7376;BME280;3728;42.266;24.944;2023-05-29T04:01:08;99287.13;;;17.49;100.00
7376;BME280;3728;42.266;24.944;2023-05-29T04:03:36;99286.09;;;17.54;100.00
7376;BME280;3728;42.266;24.944;2023-05-29T04:06:05;99295.66;;;17.58;100.00
7376;BME280;3728;42.266;24.944;2023-05-29T04:08:33;99292.31;;;17.84;100.00
7376;BME280;3728;42.266;24.944;2023-05-29T04:11:02;99300.78;;;17.70;100.00
7376;BME280;3728;42.266;24.944;2023-05-29T04:13:30;99305.03;;;17.75;100.00
7376;BME280;3728;42.266;24.944;2023-05-29T04:15:58;99307.09;;;17.85;100.00
7376;BME280;3728;42.266;24.944;2023-05-29T04:18:28;99310.28;;;18.17;100.00
7376;BME280;3728;42.266;24.944;2023-05-29T04:20:57;99307.47;;;18.06;100.00
7376;BME280;3728;42.266;24.944;2023-05-29T04:23:26;99311.34;;;18.12;100.00
7376;BME280;3728;42.266;24.944;2023-05-29T04:25:54;99317.63;;;18.04;100.00
7376;BME280;3728;42.266;24.944;2023-05-29T04:28:25;99314.44;;;17.95;100.00
7376;BME280;3728;42.266;24.944;2023-05-29T04:30:54;99304.63;;;17.96;100.00
7376;BME280;3728;42.266;24.944;2023-05-29T04:33:23;99310.75;;;18.00;100.00
7376;BME280;3728;42.266;24.944;2023-05-29T04:35:51;99316.69;;;17.93;100.00
7376;BME280;3728;42.266;24.944;2023-05-29T04:38:20;99311.28;;;17.86;100.00
7376;BME280;3728;42.266;24.944;2023-05-29T04:40:53;99307.72;;;17.78;100.00
7376;BME280;3728;42.266;24.944;2023-05-29T04:43:25;99313.94;;;17.67;100.00
7376;BME280;3728;42.266;24.944;2023-05-29T04:46:04;99306.28;;;17.62;100.00
7376;BME280;3728;42.266;24.944;2023-05-29T04:48:35;99313.53;;;17.65;100.00
7376;BME280;3728;42.266;24.944;2023-05-29T04:51:03;99314.59;;;17.60;100.00
7376;BME280;3728;42.266;24.944;2023-05-29T04:53:30;99324.53;;;17.67;100.00
7376;BME280;3728;42.266;24.944;2023-05-29T04:55:58;99337.00;;;17.66;100.00
7376;BME280;3728;42.266;24.944;2023-05-29T04:58:26;99331.56;;;17.78;100.00
7376;BME280;3728;42.266;24.944;2023-05-29T05:00:54;99335.59;;;18.14;100.00
7376;BME280;3728;42.266;24.944;2023-05-29T05:03:29;99342.59;;;18.03;100.00
7376;BME280;3728;42.266;24.944;2023-05-29T05:06:01;99335.34;;;18.00;100.00
7376;BME280;3728;42.266;24.944;2023-05-29T05:08:30;99341.13;;;18.06;100.00
7376;BME280;3728;42.266;24.944;2023-05-29T05:11:00;99342.53;;;18.00;100.00
7376;BME280;3728;42.266;24.944;2023-05-29T05:13:28;99343.19;;;17.93;100.00
7376;BME280;3728;42.266;24.944;2023-05-29T05:15:55;99335.75;;;18.02;100.00
7376;BME280;3728;42.266;24.944;2023-05-29T05:18:23;99336.63;;;18.06;100.00
7376;BME280;3728;42.266;24.944;2023-05-29T05:20:59;99342.31;;;18.08;100.00
7376;BME280;3728;42.266;24.944;2023-05-29T05:23:26;99336.84;;;18.20;100.00
7376;BME280;3728;42.266;24.944;2023-05-29T05:25:54;99342.25;;;18.27;100.00
7376;BME280;3728;42.266;24.944;2023-05-29T05:28:23;99349.25;;;18.39;100.00
7376;BME280;3728;42.266;24.944;2023-05-29T05:30:51;99346.25;;;18.40;100.00
7376;BME280;3728;42.266;24.944;2023-05-29T05:33:19;99353.13;;;18.45;100.00
7376;BME280;3728;42.266;24.944;2023-05-29T05:35:50;99346.31;;;18.67;100.00
7376;BME280;3728;42.266;24.944;2023-05-29T05:38:17;99352.81;;;18.73;100.00
7376;BME280;3728;42.266;24.944;2023-05-29T05:40:47;99350.56;;;18.75;100.00
7376;BME280;3728;42.266;24.944;2023-05-29T05:43:21;99348.19;;;18.92;100.00
7376;BME280;3728;42.266;24.944;2023-05-29T05:46:21;99353.84;;;19.50;100.00
7376;BME280;3728;42.266;24.944;2023-05-29T05:48:53;99351.72;;;19.63;100.00
7376;BME280;3728;42.266;24.944;2023-05-29T05:51:24;99347.09;;;19.56;100.00
7376;BME280;3728;42.266;24.944;2023-05-29T05:53:51;99345.78;;;19.76;100.00
7376;BME280;3728;42.266;24.944;2023-05-29T05:56:19;99351.75;;;20.07;100.00
7376;BME280;3728;42.266;24.944;2023-05-29T05:58:47;99356.59;;;19.94;100.00
7376;BME280;3728;42.266;24.944;2023-05-29T06:01:18;99360.50;;;19.67;100.00
7376;BME280;3728;42.266;24.944;2023-05-29T06:03:47;99359.88;;;19.81;100.00
7376;BME280;3728;42.266;24.944;2023-05-29T06:06:16;99367.78;;;19.73;100.00
7376;BME280;3728;42.266;24.944;2023-05-29T06:08:46;99368.66;;;19.85;100.00
7376;BME280;3728;42.266;24.944;2023-05-29T06:11:15;99362.31;;;19.96;100.00
7376;BME280;3728;42.266;24.944;2023-05-29T06:13:45;99372.47;;;19.87;100.00
7376;BME280;3728;42.266;24.944;2023-05-29T06:16:22;99380.69;;;19.75;100.00
7376;BME280;3728;42.266;24.944;2023-05-29T06:18:50;99382.41;;;19.90;100.00
7376;BME280;3728;42.266;24.944;2023-05-29T06:21:18;99383.88;;;19.88;100.00
7376;BME280;3728;42.266;24.944;2023-05-29T06:23:51;99375.59;;;19.96;100.00
7376;BME280;3728;42.266;24.944;2023-05-29T06:26:19;99382.41;;;19.90;100.00
7376;BME280;3728;42.266;24.944;2023-05-29T06:28:48;99379.94;;;19.74;100.00
7376;BME280;3728;42.266;24.944;2023-05-29T06:31:16;99371.72;;;19.87;100.00
7376;BME280;3728;42.266;24.944;2023-05-29T06:33:45;99373.31;;;19.95;100.00
7376;BME280;3728;42.266;24.944;2023-05-29T06:36:13;99371.91;;;20.08;100.00
7376;BME280;3728;42.266;24.944;2023-05-29T06:38:49;99379.91;;;20.48;99.91
7376;BME280;3728;42.266;24.944;2023-05-29T06:41:17;99370.75;;;20.45;100.00
7376;BME280;3728;42.266;24.944;2023-05-29T06:43:44;99370.25;;;20.29;100.00
7376;BME280;3728;42.266;24.944;2023-05-29T06:46:12;99378.44;;;20.58;100.00
7376;BME280;3728;42.266;24.944;2023-05-29T06:48:41;99371.63;;;20.64;98.74
7376;BME280;3728;42.266;24.944;2023-05-29T06:51:08;99365.25;;;20.72;98.39
7376;BME280;3728;42.266;24.944;2023-05-29T06:53:41;99374.13;;;20.93;94.36
7376;BME280;3728;42.266;24.944;2023-05-29T06:56:12;99373.19;;;20.68;98.07
7376;BME280;3728;42.266;24.944;2023-05-29T06:58:39;99378.47;;;20.61;98.58
7376;BME280;3728;42.266;24.944;2023-05-29T07:01:07;99368.63;;;20.65;98.86
7376;BME280;3728;42.266;24.944;2023-05-29T07:03:46;99373.84;;;20.55;97.90
7376;BME280;3728;42.266;24.944;2023-05-29T07:06:17;99377.47;;;20.83;96.09
7376;BME280;3728;42.266;24.944;2023-05-29T07:08:47;99383.13;;;20.75;97.38
7376;BME280;3728;42.266;24.944;2023-05-29T07:11:16;99378.16;;;20.73;96.27
7376;BME280;3728;42.266;24.944;2023-05-29T07:13:44;99379.91;;;20.52;100.00
7376;BME280;3728;42.266;24.944;2023-05-29T07:16:13;99379.59;;;20.60;100.00
7376;BME280;3728;42.266;24.944;2023-05-29T07:19:03;99374.44;;;20.85;98.53
7376;BME280;3728;42.266;24.944;2023-05-29T07:21:34;99378.63;;;20.86;98.95
7376;BME280;3728;42.266;24.944;2023-05-29T07:24:04;99380.03;;;20.69;100.00
7376;BME280;3728;42.266;24.944;2023-05-29T07:26:32;99380.34;;;20.57;100.00
7376;BME280;3728;42.266;24.944;2023-05-29T07:29:02;99381.34;;;20.93;100.00
7376;BME280;3728;42.266;24.944;2023-05-29T07:31:31;99374.47;;;20.88;100.00
7376;BME280;3728;42.266;24.944;2023-05-29T07:33:59;99377.53;;;20.94;100.00
7376;BME280;3728;42.266;24.944;2023-05-29T07:36:29;99378.25;;;20.87;100.00
7376;BME280;3728;42.266;24.944;2023-05-29T07:39:02;99381.88;;;21.13;100.00
7376;BME280;3728;42.266;24.944;2023-05-29T07:41:32;99386.03;;;21.10;99.98
7376;BME280;3728;42.266;24.944;2023-05-29T07:44:00;99386.94;;;21.46;98.36
7376;BME280;3728;42.266;24.944;2023-05-29T07:46:29;99379.59;;;21.18;99.29
7376;BME280;3728;42.266;24.944;2023-05-29T07:49:17;99392.53;;;21.13;100.00
7376;BME280;3728;42.266;24.944;2023-05-29T07:51:45;99388.66;;;21.06;100.00
7376;BME280;3728;42.266;24.944;2023-05-29T07:54:14;99388.28;;;21.08;100.00
7376;BME280;3728;42.266;24.944;2023-05-29T07:56:44;99390.22;;;21.11;100.00
7376;BME280;3728;42.266;24.944;2023-05-29T07:59:13;99394.88;;;21.32;97.98
7376;BME280;3728;42.266;24.944;2023-05-29T08:01:43;99396.72;;;21.17;95.34
7376;BME280;3728;42.266;24.944;2023-05-29T08:04:28;99403.63;;;21.29;94.16
7376;BME280;3728;42.266;24.944;2023-05-29T08:06:56;99397.97;;;21.37;94.14
7376;BME280;3728;42.266;24.944;2023-05-29T08:09:24;99402.19;;;21.45;93.05
7376;BME280;3728;42.266;24.944;2023-05-29T08:11:54;99387.44;;;21.69;93.98
7376;BME280;3728;42.266;24.944;2023-05-29T08:14:23;99391.31;;;21.89;89.13
7376;BME280;3728;42.266;24.944;2023-05-29T08:16:52;99387.78;;;21.57;91.95
7376;BME280;3728;42.266;24.944;2023-05-29T08:19:20;99389.59;;;21.39;91.75
7376;BME280;3728;42.266;24.944;2023-05-29T08:21:50;99385.03;;;21.36;93.80
7376;BME280;3728;42.266;24.944;2023-05-29T08:24:18;99385.03;;;21.39;93.41
7376;BME280;3728;42.266;24.944;2023-05-29T08:26:47;99378.59;;;21.51;94.12
7376;BME280;3728;42.266;24.944;2023-05-29T08:29:15;99382.00;;;21.41;95.12
7376;BME280;3728;42.266;24.944;2023-05-29T08:31:43;99383.94;;;21.47;92.23
7376;BME280;3728;42.266;24.944;2023-05-29T08:34:10;99381.25;;;21.47;91.74
7376;BME280;3728;42.266;24.944;2023-05-29T08:36:38;99390.56;;;21.92;87.97
7376;BME280;3728;42.266;24.944;2023-05-29T08:39:07;99386.75;;;21.93;88.19
7376;BME280;3728;42.266;24.944;2023-05-29T08:41:55;99385.63;;;22.08;87.45
7376;BME280;3728;42.266;24.944;2023-05-29T08:44:35;99378.00;;;22.03;88.16
7376;BME280;3728;42.266;24.944;2023-05-29T08:47:07;99376.13;;;22.18;88.69
7376;BME280;3728;42.266;24.944;2023-05-29T08:49:43;99372.31;;;22.29;87.52
7376;BME280;3728;42.266;24.944;2023-05-29T08:52:15;99369.25;;;22.59;87.19
7376;BME280;3728;42.266;24.944;2023-05-29T08:54:44;99380.31;;;22.79;86.02
7376;BME280;3728;42.266;24.944;2023-05-29T08:57:12;99377.25;;;22.73;86.26
7376;BME280;3728;42.266;24.944;2023-05-29T08:59:44;99377.25;;;22.91;86.58
7376;BME280;3728;42.266;24.944;2023-05-29T09:02:13;99376.06;;;23.02;85.92
7376;BME280;3728;42.266;24.944;2023-05-29T09:04:42;99376.03;;;23.09;86.10
7376;BME280;3728;42.266;24.944;2023-05-29T09:07:16;99371.44;;;23.17;83.38
7376;BME280;3728;42.266;24.944;2023-05-29T09:09:48;99375.25;;;23.20;84.13
7376;BME280;3728;42.266;24.944;2023-05-29T09:12:18;99374.53;;;23.05;84.67
7376;BME280;3728;42.266;24.944;2023-05-29T09:14:46;99366.13;;;23.06;82.34
7376;BME280;3728;42.266;24.944;2023-05-29T09:17:14;99369.59;;;23.00;85.20
7376;BME280;3728;42.266;24.944;2023-05-29T09:19:43;99365.69;;;23.26;82.25
7376;BME280;3728;42.266;24.944;2023-05-29T09:22:15;99368.31;;;23.43;83.58
7376;BME280;3728;42.266;24.944;2023-05-29T09:24:46;99366.06;;;23.28;81.39
7376;BME280;3728;42.266;24.944;2023-05-29T09:27:15;99367.19;;;23.34;79.19
7376;BME280;3728;42.266;24.944;2023-05-29T09:29:45;99365.28;;;23.27;82.80
7376;BME280;3728;42.266;24.944;2023-05-29T09:32:17;99361.06;;;23.33;79.94
7376;BME280;3728;42.266;24.944;2023-05-29T09:34:45;99365.75;;;23.08;79.25
7376;BME280;3728;42.266;24.944;2023-05-29T09:37:13;99362.28;;;23.18;80.03
7376;BME280;3728;42.266;24.944;2023-05-29T09:39:49;99364.16;;;23.35;78.98
7376;BME280;3728;42.266;24.944;2023-05-29T09:42:24;99354.28;;;23.11;80.38
7376;BME280;3728;42.266;24.944;2023-05-29T09:44:52;99347.38;;;23.21;77.53
7376;BME280;3728;42.266;24.944;2023-05-29T09:47:21;99351.22;;;23.16;80.65
7376;BME280;3728;42.266;24.944;2023-05-29T09:49:48;99340.09;;;23.32;81.19
7376;BME280;3728;42.266;24.944;2023-05-29T09:52:21;99342.28;;;23.51;77.92
7376;BME280;3728;42.266;24.944;2023-05-29T09:54:49;99335.69;;;23.69;76.00
7376;BME280;3728;42.266;24.944;2023-05-29T09:57:17;99334.50;;;23.77;75.69
7376;BME280;3728;42.266;24.944;2023-05-29T09:59:45;99344.06;;;23.78;77.48
7376;BME280;3728;42.266;24.944;2023-05-29T10:02:18;99338.22;;;23.91;71.80
7376;BME280;3728;42.266;24.944;2023-05-29T10:04:48;99341.31;;;23.89;72.70
7376;BME280;3728;42.266;24.944;2023-05-29T10:07:27;99329.19;;;23.74;73.26
7376;BME280;3728;42.266;24.944;2023-05-29T10:10:05;99332.97;;;23.80;73.03
7376;BME280;3728;42.266;24.944;2023-05-29T10:12:37;99328.75;;;23.83;72.94
7376;BME280;3728;42.266;24.944;2023-05-29T10:15:14;99320.41;;;23.70;72.02
7376;BME280;3728;42.266;24.944;2023-05-29T10:17:50;99316.97;;;23.73;73.52
7376;BME280;3728;42.266;24.944;2023-05-29T10:20:26;99321.19;;;23.74;74.61
7376;BME280;3728;42.266;24.944;2023-05-29T10:23:00;99325.81;;;23.66;72.45
7376;BME280;3728;42.266;24.944;2023-05-29T10:25:31;99315.09;;;23.66;73.58
7376;BME280;3728;42.266;24.944;2023-05-29T10:34:55;99319.72;;;24.17;72.09
7376;BME280;3728;42.266;24.944;2023-05-29T10:37:39;99309.78;;;24.18;71.91
7376;BME280;3728;42.266;24.944;2023-05-29T10:40:23;99304.59;;;24.41;72.80
7376;BME280;3728;42.266;24.944;2023-05-29T10:42:52;99302.25;;;24.46;71.62
7376;BME280;3728;42.266;24.944;2023-05-29T10:50:41;99303.59;;;25.02;76.30
7376;BME280;3728;42.266;24.944;2023-05-29T10:53:18;99295.38;;;25.47;75.26
7376;BME280;3728;42.266;24.944;2023-05-29T10:55:59;99304.50;;;26.03;71.74
7376;BME280;3728;42.266;24.944;2023-05-29T10:58:31;99294.53;;;26.26;65.96
7376;BME280;3728;42.266;24.944;2023-05-29T11:00:58;99293.47;;;26.43;65.89
7376;BME280;3728;42.266;24.944;2023-05-29T11:03:30;99293.03;;;26.88;60.38
7376;BME280;3728;42.266;24.944;2023-05-29T11:06:03;99304.41;;;27.15;63.31
7376;BME280;3728;42.266;24.944;2023-05-29T11:12:21;99296.44;;;27.47;59.11
7376;BME280;3728;42.266;24.944;2023-05-29T11:15:06;99294.66;;;27.21;54.17
7376;BME280;3728;42.266;24.944;2023-05-29T11:25:28;99282.16;;;26.32;57.16
7376;BME280;3728;42.266;24.944;2023-05-29T11:27:56;99285.53;;;26.36;54.95
7376;BME280;3728;42.266;24.944;2023-05-29T11:30:24;99278.84;;;26.25;54.12
7376;BME280;3728;42.266;24.944;2023-05-29T11:32:52;99282.13;;;26.13;52.74
7376;BME280;3728;42.266;24.944;2023-05-29T11:35:21;99285.75;;;26.26;53.98
7376;BME280;3728;42.266;24.944;2023-05-29T11:37:49;99271.25;;;26.20;51.60
7376;BME280;3728;42.266;24.944;2023-05-29T11:40:18;99271.81;;;26.08;53.19
7376;BME280;3728;42.266;24.944;2023-05-29T11:42:46;99278.53;;;25.96;55.82
7376;BME280;3728;42.266;24.944;2023-05-29T11:45:20;99277.19;;;26.08;53.87
7376;BME280;3728;42.266;24.944;2023-05-29T11:47:53;99279.94;;;26.04;52.90
7376;BME280;3728;42.266;24.944;2023-05-29T11:50:26;99271.81;;;26.08;58.48
7376;BME280;3728;42.266;24.944;2023-05-29T11:52:55;99266.78;;;26.13;55.48
7376;BME280;3728;42.266;24.944;2023-05-29T11:55:24;99265.41;;;26.02;54.94
7376;BME280;3728;42.266;24.944;2023-05-29T11:57:58;99265.31;;;25.86;57.03
7376;BME280;3728;42.266;24.944;2023-05-29T12:00:31;99261.53;;;25.79;56.72
7376;BME280;3728;42.266;24.944;2023-05-29T12:03:03;99261.66;;;25.96;54.98
7376;BME280;3728;42.266;24.944;2023-05-29T12:05:45;99263.03;;;26.07;54.98
7376;BME280;3728;42.266;24.944;2023-05-29T12:08:15;99261.16;;;26.27;58.01
7376;BME280;3728;42.266;24.944;2023-05-29T12:10:49;99261.59;;;26.45;56.00
7376;BME280;3728;42.266;24.944;2023-05-29T12:13:21;99258.66;;;26.79;56.29
7376;BME280;3728;42.266;24.944;2023-05-29T12:15:57;99258.50;;;27.06;52.08
7376;BME280;3728;42.266;24.944;2023-05-29T12:18:26;99256.13;;;26.92;55.29
7376;BME280;3728;42.266;24.944;2023-05-29T12:21:01;99255.13;;;27.02;54.87
7376;BME280;3728;42.266;24.944;2023-05-29T12:23:30;99249.97;;;26.91;53.04
7376;BME280;3728;42.266;24.944;2023-05-29T12:25:58;99253.06;;;27.26;56.52
7376;BME280;3728;42.266;24.944;2023-05-29T12:28:29;99263.00;;;27.29;54.73
7376;BME280;3728;42.266;24.944;2023-05-29T12:30:59;99256.56;;;27.42;51.85
7376;BME280;3728;42.266;24.944;2023-05-29T12:33:29;99257.47;;;27.36;54.77
7376;BME280;3728;42.266;24.944;2023-05-29T12:36:04;99250.38;;;27.45;54.18
7376;BME280;3728;42.266;24.944;2023-05-29T12:38:46;99248.88;;;27.60;51.37
7376;BME280;3728;42.266;24.944;2023-05-29T12:41:33;99255.25;;;27.50;51.91
7376;BME280;3728;42.266;24.944;2023-05-29T12:44:03;99242.16;;;27.33;53.44
7376;BME280;3728;42.266;24.944;2023-05-29T12:46:39;99246.56;;;27.07;53.25
7376;BME280;3728;42.266;24.944;2023-05-29T12:49:13;99243.47;;;27.08;53.68
7376;BME280;3728;42.266;24.944;2023-05-29T12:51:43;99235.59;;;27.18;55.43
7376;BME280;3728;42.266;24.944;2023-05-29T12:54:12;99229.81;;;27.35;54.23
7376;BME280;3728;42.266;24.944;2023-05-29T12:56:42;99235.72;;;28.11;53.02
7376;BME280;3728;42.266;24.944;2023-05-29T12:59:10;99235.72;;;28.39;48.64
7376;BME280;3728;42.266;24.944;2023-05-29T13:01:38;99232.09;;;28.87;44.74
7376;BME280;3728;42.266;24.944;2023-05-29T13:04:07;99232.13;;;29.12;46.48
7376;BME280;3728;42.266;24.944;2023-05-29T13:06:36;99231.19;;;28.65;46.72
7376;BME280;3728;42.266;24.944;2023-05-29T13:09:05;99225.63;;;28.85;45.78
7376;BME280;3728;42.266;24.944;2023-05-29T13:11:34;99225.59;;;28.72;47.06
7376;BME280;3728;42.266;24.944;2023-05-29T13:14:04;99235.13;;;28.89;44.70
7376;BME280;3728;42.266;24.944;2023-05-29T13:16:32;99230.53;;;28.61;46.24
7376;BME280;3728;42.266;24.944;2023-05-29T13:19:00;99238.03;;;28.95;45.98
7376;BME280;3728;42.266;24.944;2023-05-29T13:21:27;99251.03;;;29.25;49.02
7376;BME280;3728;42.266;24.944;2023-05-29T13:23:55;99245.00;;;28.67;50.55
7376;BME280;3728;42.266;24.944;2023-05-29T13:26:22;99240.19;;;27.69;54.27
7376;BME280;3728;42.266;24.944;2023-05-29T13:28:55;99243.69;;;26.98;57.11
7376;BME280;3728;42.266;24.944;2023-05-29T13:31:23;99244.75;;;26.22;63.38
7376;BME280;3728;42.266;24.944;2023-05-29T13:33:51;99249.91;;;25.63;65.66
7376;BME280;3728;42.266;24.944;2023-05-29T13:36:18;99247.84;;;25.21;69.62
7376;BME280;3728;42.266;24.944;2023-05-29T13:38:46;99254.84;;;25.41;70.02
7376;BME280;3728;42.266;24.944;2023-05-29T13:41:13;99254.66;;;24.98;70.05
7376;BME280;3728;42.266;24.944;2023-05-29T13:43:41;99257.19;;;24.41;74.06
7376;BME280;3728;42.266;24.944;2023-05-29T13:46:11;99261.72;;;24.04;77.12
7376;BME280;3728;42.266;24.944;2023-05-29T13:48:39;99254.22;;;23.88;79.18
7376;BME280;3728;42.266;24.944;2023-05-29T13:51:07;99258.91;;;23.73;81.82
7376;BME280;3728;42.266;24.944;2023-05-29T13:53:34;99265.44;;;23.69;83.35